createdAt,value
2023-01-27T00:01:40.912Z,1.3
2023-01-27T00:06:43.031Z,1.3
2023-01-27T00:16:45.994Z,1.2
2023-01-27T00:21:48.336Z,1.1
2023-01-27T00:26:50.752Z,1.1
2023-01-27T00:31:53.465Z,1
2023-01-27T00:36:55.906Z,1
2023-01-27T00:41:58.203Z,1
2023-01-27T00:47:00.388Z,1
2023-01-27T00:52:02.592Z,1
2023-01-27T00:57:04.796Z,0.9
2023-01-27T01:02:07.012Z,0.9
2023-01-27T01:07:09.269Z,1
2023-01-27T01:12:11.477Z,0.9
2023-01-27T01:17:13.652Z,0.9
2023-01-27T01:22:16.372Z,0.8
2023-01-27T01:27:18.637Z,0.8
2023-01-27T01:32:20.795Z,0.8
2023-01-27T01:37:22.925Z,0.9
2023-01-27T01:42:25.150Z,0.9
2023-01-27T01:47:27.287Z,0.9
2023-01-27T01:52:29.486Z,0.9
2023-01-27T01:57:31.550Z,0.9
2023-01-27T02:02:34.620Z,0.8
2023-01-27T02:07:37.100Z,0.8
2023-01-27T02:12:39.606Z,0.8
2023-01-27T02:17:42.269Z,0.8
2023-01-27T02:22:44.596Z,0.8
2023-01-27T02:27:46.888Z,0.8
2023-01-27T02:32:49.277Z,0.8
2023-01-27T02:37:51.477Z,0.9
2023-01-27T02:42:53.615Z,0.8
2023-01-27T02:47:55.890Z,0.8
2023-01-27T02:52:58.051Z,0.9
2023-01-27T02:58:00.272Z,0.9
2023-01-27T03:03:02.444Z,0.9
2023-01-27T03:08:04.651Z,0.9
2023-01-27T03:13:06.805Z,0.8
2023-01-27T03:18:09.382Z,0.9
2023-01-27T03:23:11.700Z,0.8
2023-01-27T03:28:14.261Z,0.9
2023-01-27T03:33:16.411Z,0.8
2023-01-27T03:38:18.536Z,0.9
2023-01-27T03:43:20.723Z,0.9
2023-01-27T03:48:22.866Z,0.9
2023-01-27T03:53:25.092Z,0.9
2023-01-27T03:58:27.227Z,0.9
2023-01-27T04:03:29.322Z,0.9
2023-01-27T04:08:31.390Z,0.9
2023-01-27T04:13:33.666Z,0.9
2023-01-27T04:18:35.809Z,0.8
2023-01-27T04:23:38.142Z,0.9
2023-01-27T04:28:46.475Z,0.8
2023-01-27T04:33:48.651Z,0.8
2023-01-27T04:38:50.874Z,0.9
2023-01-27T04:43:52.929Z,0.9
2023-01-27T04:48:55.231Z,0.9
2023-01-27T04:53:57.406Z,0.9
2023-01-27T04:58:59.563Z,0.9
2023-01-27T05:04:01.805Z,0.9
2023-01-27T05:14:04.939Z,0.7
2023-01-27T05:19:06.989Z,0.8
2023-01-27T05:24:10.503Z,0.7
2023-01-27T05:29:12.675Z,0.6
2023-01-27T05:34:14.694Z,0.6
2023-01-27T05:39:16.678Z,0.6
2023-01-27T05:44:18.652Z,0.5
2023-01-27T05:49:20.756Z,0.6
2023-01-27T05:54:22.843Z,0.7
2023-01-27T05:59:24.827Z,0.6
2023-01-27T06:04:27.031Z,0.7
2023-01-27T06:09:30.312Z,0.7
2023-01-27T06:14:32.527Z,0.7
2023-01-27T06:19:35.409Z,0.8
2023-01-27T06:24:38.265Z,0.9
2023-01-27T06:29:40.492Z,0.9
2023-01-27T06:34:42.712Z,1
2023-01-27T06:39:45.365Z,0.8
2023-01-27T06:44:47.429Z,0.7
2023-01-27T06:49:53.023Z,0.8
2023-01-27T06:54:55.222Z,0.8
2023-01-27T06:59:57.837Z,0.9
2023-01-27T07:05:00.135Z,0.8
2023-01-27T07:10:02.360Z,0.9
2023-01-27T07:15:06.996Z,1
2023-01-27T07:20:09.268Z,0.9
2023-01-27T07:25:11.821Z,1
2023-01-27T07:30:17.403Z,1
2023-01-27T07:35:19.667Z,1
2023-01-27T07:40:21.959Z,1.1
2023-01-27T07:45:24.475Z,1.5
2023-01-27T07:50:26.671Z,1.5
2023-01-27T07:55:28.776Z,1.7
2023-01-27T08:00:31.376Z,2.1
2023-01-27T08:05:33.625Z,2
2023-01-27T08:10:35.800Z,2.2
2023-01-27T08:15:38.175Z,2.3
2023-01-27T08:20:40.924Z,2.1
2023-01-27T08:25:43.043Z,2.1
2023-01-27T08:30:45.321Z,2.1
2023-01-27T08:35:47.421Z,2.2
2023-01-27T08:40:49.552Z,2.1
2023-01-27T08:45:51.887Z,2.1
2023-01-27T08:50:54.082Z,2.1
2023-01-27T08:55:56.831Z,2.4
2023-01-27T09:00:59.352Z,2.4
2023-01-27T09:06:01.599Z,2.4
2023-01-27T09:11:04.013Z,2.5
2023-01-27T09:16:06.292Z,2.7
2023-01-27T09:21:11.520Z,2.8
2023-01-27T09:26:13.989Z,2.8
2023-01-27T09:31:16.782Z,2.5
2023-01-27T09:36:18.966Z,2.5
2023-01-27T09:41:20.965Z,2.7
2023-01-27T09:46:23.459Z,3
2023-01-27T09:51:26.194Z,3.4
2023-01-27T09:56:28.620Z,3.4
2023-01-27T10:01:30.813Z,3.8
2023-01-27T10:06:36.543Z,3.4
2023-01-27T10:11:38.692Z,3.4
2023-01-27T10:16:41.282Z,3.3
2023-01-27T10:21:43.651Z,3.3
2023-01-27T10:26:46.335Z,3.4
2023-01-27T10:31:48.983Z,3
2023-01-27T10:36:51.472Z,3
2023-01-27T10:41:53.575Z,3.2
2023-01-27T10:46:56.370Z,3.6
2023-01-27T10:51:58.702Z,3.5
2023-01-27T10:57:00.894Z,3.4
2023-01-27T11:02:03.198Z,3.3
2023-01-27T11:07:05.548Z,3.2
2023-01-27T11:12:08.057Z,3.2
2023-01-27T11:17:10.365Z,3.2
2023-01-27T11:22:12.666Z,2.7
2023-01-27T11:27:14.999Z,2.6
2023-01-27T11:32:17.223Z,2.7
2023-01-27T11:37:20.143Z,2.8
2023-01-27T11:42:22.825Z,2.8
2023-01-27T11:52:27.773Z,2.9
2023-01-27T11:57:30.289Z,2.6
2023-01-27T12:02:32.516Z,2.6
2023-01-27T12:07:34.774Z,2.5
2023-01-27T12:12:37.106Z,2.6
2023-01-27T12:17:39.367Z,4.1
2023-01-27T12:22:46.098Z,5.6
2023-01-27T12:32:49.432Z,6.6
2023-01-27T12:37:51.737Z,7.7
2023-01-27T12:42:53.983Z,5.8
2023-01-27T12:47:56.074Z,4.5
2023-01-27T12:52:58.369Z,3.8
2023-01-27T12:58:00.620Z,3.4
2023-01-27T13:03:02.828Z,3.3
2023-01-27T13:08:05.200Z,3.2
2023-01-27T13:13:07.444Z,3
2023-01-27T13:18:09.530Z,2.7
2023-01-27T13:23:11.624Z,2.8
2023-01-27T13:28:14.197Z,2.3
2023-01-27T13:33:16.468Z,2.2
2023-01-27T13:38:19.333Z,1.7
2023-01-27T13:43:21.946Z,1.6
2023-01-27T13:48:24.253Z,1.6
2023-01-27T13:53:26.578Z,1.6
2023-01-27T13:58:29.189Z,1.7
2023-01-27T14:03:31.760Z,1.8
2023-01-27T14:08:33.902Z,1.7
2023-01-27T14:13:36.079Z,1.8
2023-01-27T14:18:38.136Z,1.6
2023-01-27T14:23:40.300Z,1.6
2023-01-27T14:28:42.884Z,1.4
2023-01-27T14:33:45.967Z,1.1
2023-01-27T14:38:50.288Z,1.2
2023-01-27T14:43:59.301Z,1.3
2023-01-27T14:49:01.869Z,1.3
2023-01-27T14:54:05.022Z,1.3
2023-01-27T14:59:07.225Z,1.2
2023-01-27T15:04:09.713Z,1.3
2023-01-27T15:09:12.880Z,1.3
2023-01-27T15:14:15.637Z,1.2
2023-01-27T15:19:18.254Z,1.2
2023-01-27T15:24:20.897Z,1.2
2023-01-27T15:29:23.276Z,1.2
2023-01-27T15:34:25.422Z,1.2
2023-01-27T15:39:48.060Z,1.2
2023-01-27T15:44:34.847Z,1.2
2023-01-27T15:54:37.764Z,1.2
2023-01-27T15:59:58.265Z,1.2
2023-01-27T16:04:40.928Z,1.2
2023-01-27T16:09:47.171Z,1.1
2023-01-27T16:14:45.818Z,1.1
2023-01-27T16:19:48.147Z,1.1
2023-01-27T16:24:50.853Z,1.2
2023-01-27T16:29:53.232Z,1.2
2023-01-27T16:34:55.698Z,1.2
2023-01-27T16:39:57.878Z,1.2
2023-01-27T16:45:00.240Z,1.2
2023-01-27T16:50:02.969Z,1.1
2023-01-27T16:55:05.393Z,1.1
2023-01-27T17:00:08.267Z,1.2
2023-01-27T17:05:10.507Z,1.2
2023-01-27T17:10:35.354Z,1.3
2023-01-27T17:15:18.382Z,1.2
2023-01-27T17:20:20.707Z,1.1
2023-01-27T17:25:22.991Z,1.2
2023-01-27T17:30:25.869Z,1.2
2023-01-27T17:35:28.117Z,1.1
2023-01-27T17:40:30.256Z,1.1
2023-01-27T17:45:33.102Z,1.3
2023-01-27T17:50:35.361Z,1.2
2023-01-27T17:55:37.913Z,1.2
2023-01-27T18:00:40.432Z,1.2
2023-01-27T18:05:42.445Z,1.2
2023-01-27T18:10:44.936Z,1.3
2023-01-27T18:15:47.175Z,1.4
2023-01-27T18:20:49.518Z,1.3
2023-01-27T18:25:54.390Z,1.2
2023-01-27T18:30:58.068Z,1.3
2023-01-27T18:36:01.522Z,1.3
2023-01-27T18:41:04.383Z,1.3
2023-01-27T18:46:06.636Z,1.3
2023-01-27T18:51:08.812Z,1.3
2023-01-27T18:56:10.928Z,1.4
2023-01-27T19:01:13.208Z,1.4
2023-01-27T19:06:16.413Z,1.4
2023-01-27T19:11:21.427Z,1.4
2023-01-27T19:16:23.978Z,4.4
2023-01-27T19:21:31.242Z,2.3
2023-01-27T19:26:33.429Z,2.2
2023-01-27T19:36:36.583Z,1.6
2023-01-27T19:41:38.916Z,1.7
2023-01-27T19:46:42.143Z,1.6
2023-01-27T19:51:44.778Z,1.6
2023-01-27T20:01:48.006Z,1.6
2023-01-27T20:06:50.508Z,1.6
2023-01-27T20:11:52.790Z,1.6
2023-01-27T20:16:55.265Z,1.6
2023-01-27T20:21:57.729Z,1.5
2023-01-27T20:26:59.910Z,1.6
2023-01-27T20:32:02.765Z,1.6
2023-01-27T20:37:05.417Z,1.6
2023-01-27T20:42:07.990Z,1.6
2023-01-27T20:47:09.994Z,1.6
2023-01-27T20:52:11.949Z,1.7
2023-01-27T20:57:13.954Z,1.6
2023-01-27T21:02:15.993Z,1.5
2023-01-27T21:07:19.571Z,1.6
2023-01-27T21:12:21.846Z,1.6
2023-01-27T21:17:24.111Z,1.6
2023-01-27T21:22:26.301Z,1.6
2023-01-27T21:27:28.983Z,1.6
2023-01-27T21:32:31.367Z,1.5
2023-01-27T21:37:33.608Z,1.6
2023-01-27T21:42:44.870Z,1.6
2023-01-27T21:47:46.875Z,1.6
2023-01-27T21:52:49.090Z,1.6
2023-01-27T21:57:51.404Z,1.6
2023-01-27T22:02:53.977Z,1.7
2023-01-27T22:08:00.246Z,1.4
2023-01-27T22:13:03.659Z,1.4
2023-01-27T22:18:05.985Z,1.4
2023-01-27T22:23:08.031Z,1.5
2023-01-27T22:28:10.117Z,1.4
2023-01-27T22:33:12.306Z,1.4
2023-01-27T22:38:14.352Z,1.4
2023-01-27T22:43:16.483Z,1.4
2023-01-27T22:48:18.507Z,1.4
2023-01-27T22:53:20.616Z,1.4
2023-01-27T22:58:22.687Z,1.4
2023-01-27T23:03:24.774Z,1.5
2023-01-27T23:08:26.972Z,1.5
2023-01-27T23:13:29.490Z,1.4
2023-01-27T23:18:31.475Z,1.4
2023-01-27T23:23:34.015Z,1.4
2023-01-27T23:28:36.128Z,1.5
2023-01-27T23:33:38.388Z,1.6
2023-01-27T23:38:40.577Z,1.5
2023-01-27T23:43:42.887Z,1.7
2023-01-27T23:48:45.061Z,1.6
2023-01-27T23:53:47.138Z,1.5
2023-01-27T23:58:49.130Z,1.5
